Kennydale, Washington
Current Conditions -  °F | °C
As of 5:53 AM on Thursday 18 Dec 2014 (Local Time) from KRNT Reporting Station
Broken Clouds Broken Clouds  
Wind Chill:   Ceiling: 8000
Heat Index:   Visibility: 10mi
Dew Point:   Wind: 3mph
Humidity: 96%   Direction: 120°ESE
Pressure: 29.94"   Gusts: NA
Location:  47.5152°N, 122.184°W
Report Text: KRNT 181353Z AUTO 12003KT 10SM BKN080 BKN095 07/06 A2994 RMK AO2 SLP143 T00670061
Loading
Personal Weather Stations






























Interactive Weather Map New forecast layout! Learn more

10-Day Weather Forecast

Advertisements
Track Severe Weather on mobile